sensor_id;sensor_type;location;lat;lon;timestamp;pressure;altitude;pressure_sealevel;temperature;humidity
71344;BME280;59146;43.850;25.948;2023-04-27T00:01:47;100787.22;;;8.79;75.13
71344;BME280;59146;43.850;25.948;2023-04-27T00:04:13;100765.06;;;8.71;75.10
71344;BME280;59146;43.850;25.948;2023-04-27T00:06:39;100807.44;;;8.92;74.89
71344;BME280;59146;43.850;25.948;2023-04-27T00:09:04;100833.22;;;9.15;74.41
71344;BME280;59146;43.850;25.948;2023-04-27T00:11:30;100771.69;;;8.59;74.26
71344;BME280;59146;43.850;25.948;2023-04-27T00:13:56;100813.31;;;8.78;74.20
71344;BME280;59146;43.850;25.948;2023-04-27T00:16:21;100791.09;;;8.88;73.83
71344;BME280;59146;43.850;25.948;2023-04-27T00:18:47;100766.59;;;8.75;72.25
71344;BME280;59146;43.850;25.948;2023-04-27T00:21:13;100766.34;;;8.62;71.91
71344;BME280;59146;43.850;25.948;2023-04-27T00:23:38;100824.97;;;9.05;72.35
71344;BME280;59146;43.850;25.948;2023-04-27T00:26:03;100797.31;;;8.86;72.24
71344;BME280;59146;43.850;25.948;2023-04-27T00:28:29;100766.84;;;8.88;71.13
71344;BME280;59146;43.850;25.948;2023-04-27T00:30:54;100816.97;;;9.27;69.54
71344;BME280;59146;43.850;25.948;2023-04-27T00:33:20;100711.19;;;8.54;69.76
71344;BME280;59146;43.850;25.948;2023-04-27T00:35:45;100820.38;;;8.93;69.41
71344;BME280;59146;43.850;25.948;2023-04-27T00:38:11;100823.38;;;9.20;69.56
71344;BME280;59146;43.850;25.948;2023-04-27T00:40:37;100830.97;;;9.24;68.63
71344;BME280;59146;43.850;25.948;2023-04-27T00:43:03;100777.59;;;8.80;69.46
71344;BME280;59146;43.850;25.948;2023-04-27T00:45:28;100824.31;;;9.02;70.13
71344;BME280;59146;43.850;25.948;2023-04-27T00:47:54;100806.38;;;8.96;69.57
71344;BME280;59146;43.850;25.948;2023-04-27T00:50:27;100799.69;;;9.07;69.32
71344;BME280;59146;43.850;25.948;2023-04-27T00:52:54;100801.16;;;8.96;69.44
71344;BME280;59146;43.850;25.948;2023-04-27T00:55:23;100765.06;;;8.71;69.43
71344;BME280;59146;43.850;25.948;2023-04-27T00:57:49;100829.91;;;8.94;70.15
71344;BME280;59146;43.850;25.948;2023-04-27T01:00:16;100836.72;;;9.14;69.43
71344;BME280;59146;43.850;25.948;2023-04-27T01:02:41;100793.44;;;8.94;68.73
71344;BME280;59146;43.850;25.948;2023-04-27T01:05:07;100814.66;;;9.04;69.29
71344;BME280;59146;43.850;25.948;2023-04-27T01:07:36;100795.25;;;8.75;69.46
71344;BME280;59146;43.850;25.948;2023-04-27T01:10:03;100752.25;;;8.66;69.05
71344;BME280;59146;43.850;25.948;2023-04-27T01:12:29;100791.50;;;8.98;68.79
71344;BME280;59146;43.850;25.948;2023-04-27T01:14:54;100779.84;;;8.88;68.03
71344;BME280;59146;43.850;25.948;2023-04-27T01:17:20;100812.00;;;8.87;68.91
71344;BME280;59146;43.850;25.948;2023-04-27T01:19:46;100850.91;;;9.08;68.79
71344;BME280;59146;43.850;25.948;2023-04-27T01:22:11;100827.91;;;8.99;68.12
71344;BME280;59146;43.850;25.948;2023-04-27T01:24:39;100833.66;;;9.06;67.76
71344;BME280;59146;43.850;25.948;2023-04-27T01:27:05;100770.19;;;8.72;68.01
71344;BME280;59146;43.850;25.948;2023-04-27T01:29:30;100828.41;;;8.89;68.52
71344;BME280;59146;43.850;25.948;2023-04-27T01:31:56;100749.47;;;8.52;67.70
71344;BME280;59146;43.850;25.948;2023-04-27T01:34:21;100866.47;;;9.27;67.07
71344;BME280;59146;43.850;25.948;2023-04-27T01:36:46;100884.84;;;9.42;66.75
71344;BME280;59146;43.850;25.948;2023-04-27T01:39:12;100824.19;;;8.86;67.33
71344;BME280;59146;43.850;25.948;2023-04-27T01:41:37;100875.66;;;9.00;68.17
71344;BME280;59146;43.850;25.948;2023-04-27T01:44:03;100878.28;;;9.17;67.69
71344;BME280;59146;43.850;25.948;2023-04-27T01:46:28;100868.31;;;9.25;66.72
71344;BME280;59146;43.850;25.948;2023-04-27T01:48:54;100822.72;;;8.80;66.97
71344;BME280;59146;43.850;25.948;2023-04-27T01:51:19;100848.94;;;8.77;67.88
71344;BME280;59146;43.850;25.948;2023-04-27T01:53:45;100887.47;;;9.07;67.73
71344;BME280;59146;43.850;25.948;2023-04-27T01:56:10;100842.66;;;8.82;67.45
71344;BME280;59146;43.850;25.948;2023-04-27T01:58:36;100847.38;;;9.09;66.50
71344;BME280;59146;43.850;25.948;2023-04-27T02:01:02;100880.72;;;9.03;67.70
71344;BME280;59146;43.850;25.948;2023-04-27T02:03:28;100860.41;;;8.73;67.58
71344;BME280;59146;43.850;25.948;2023-04-27T02:05:53;100793.88;;;8.49;67.50
71344;BME280;59146;43.850;25.948;2023-04-27T02:08:19;100869.50;;;9.01;67.01
71344;BME280;59146;43.850;25.948;2023-04-27T02:10:44;100833.72;;;8.87;66.40
71344;BME280;59146;43.850;25.948;2023-04-27T02:13:09;100855.19;;;8.73;67.59
71344;BME280;59146;43.850;25.948;2023-04-27T02:15:35;100886.94;;;8.82;67.83
71344;BME280;59146;43.850;25.948;2023-04-27T02:18:02;100878.53;;;8.94;67.50
71344;BME280;59146;43.850;25.948;2023-04-27T02:20:31;100916.63;;;9.15;67.35
71344;BME280;59146;43.850;25.948;2023-04-27T02:22:57;100867.69;;;8.84;67.44
71344;BME280;59146;43.850;25.948;2023-04-27T02:25:22;100887.91;;;8.98;66.84
71344;BME280;59146;43.850;25.948;2023-04-27T02:27:47;100896.28;;;9.04;67.18
71344;BME280;59146;43.850;25.948;2023-04-27T02:30:13;100878.13;;;9.03;66.89
71344;BME280;59146;43.850;25.948;2023-04-27T02:32:39;100883.94;;;9.08;66.88
71344;BME280;59146;43.850;25.948;2023-04-27T02:35:06;100829.25;;;8.53;66.89
71344;BME280;59146;43.850;25.948;2023-04-27T02:37:32;100874.84;;;8.80;67.92
71344;BME280;59146;43.850;25.948;2023-04-27T02:39:58;100887.66;;;8.85;68.59
71344;BME280;59146;43.850;25.948;2023-04-27T02:42:23;100878.16;;;9.01;67.92
71344;BME280;59146;43.850;25.948;2023-04-27T02:44:49;100901.22;;;8.92;67.75
71344;BME280;59146;43.850;25.948;2023-04-27T02:47:14;100864.03;;;8.52;68.04
71344;BME280;59146;43.850;25.948;2023-04-27T02:49:39;100936.34;;;9.02;68.52
71344;BME280;59146;43.850;25.948;2023-04-27T02:52:05;100917.81;;;9.08;68.09
71344;BME280;59146;43.850;25.948;2023-04-27T02:54:31;100871.84;;;8.88;68.01
71344;BME280;59146;43.850;25.948;2023-04-27T02:56:56;100906.91;;;9.00;68.00
71344;BME280;59146;43.850;25.948;2023-04-27T02:59:22;100924.09;;;9.04;68.12
71344;BME280;59146;43.850;25.948;2023-04-27T03:01:47;100913.38;;;9.10;68.21
71344;BME280;59146;43.850;25.948;2023-04-27T03:04:13;100894.56;;;9.03;66.82
71344;BME280;59146;43.850;25.948;2023-04-27T03:06:42;100925.03;;;9.03;67.54
71344;BME280;59146;43.850;25.948;2023-04-27T03:09:07;100860.50;;;8.53;67.82
71344;BME280;59146;43.850;25.948;2023-04-27T03:11:34;100748.78;;;7.93;67.65
71344;BME280;59146;43.850;25.948;2023-04-27T03:14:01;100972.50;;;9.26;68.26
71344;BME280;59146;43.850;25.948;2023-04-27T03:16:26;100894.00;;;8.79;68.62
71344;BME280;59146;43.850;25.948;2023-04-27T03:18:52;100959.44;;;9.28;69.27
71344;BME280;59146;43.850;25.948;2023-04-27T03:21:17;100926.56;;;8.88;69.02
71344;BME280;59146;43.850;25.948;2023-04-27T03:23:43;100976.34;;;9.19;68.44
71344;BME280;59146;43.850;25.948;2023-04-27T03:26:09;100902.84;;;8.75;68.43
71344;BME280;59146;43.850;25.948;2023-04-27T03:28:35;100960.53;;;9.22;67.83
71344;BME280;59146;43.850;25.948;2023-04-27T03:31:08;100991.81;;;9.22;67.82
71344;BME280;59146;43.850;25.948;2023-04-27T03:33:34;101014.09;;;9.29;69.18
71344;BME280;59146;43.850;25.948;2023-04-27T03:36:01;100948.31;;;9.06;69.17
71344;BME280;59146;43.850;25.948;2023-04-27T03:38:27;100907.22;;;8.94;69.51
71344;BME280;59146;43.850;25.948;2023-04-27T03:40:53;100983.88;;;9.25;68.79
71344;BME280;59146;43.850;25.948;2023-04-27T03:43:19;101002.81;;;9.29;70.67
71344;BME280;59146;43.850;25.948;2023-04-27T03:45:45;100939.03;;;9.00;70.97
71344;BME280;59146;43.850;25.948;2023-04-27T03:48:10;100944.03;;;9.05;70.21
71344;BME280;59146;43.850;25.948;2023-04-27T03:50:36;101019.09;;;9.51;70.93
71344;BME280;59146;43.850;25.948;2023-04-27T03:53:02;100982.03;;;9.27;69.83
71344;BME280;59146;43.850;25.948;2023-04-27T03:55:27;100900.75;;;8.84;70.09
71344;BME280;59146;43.850;25.948;2023-04-27T03:57:53;100963.69;;;9.29;69.82
71344;BME280;59146;43.850;25.948;2023-04-27T04:00:18;100957.06;;;9.40;68.18
71344;BME280;59146;43.850;25.948;2023-04-27T04:02:44;100955.88;;;9.29;69.09
71344;BME280;59146;43.850;25.948;2023-04-27T04:05:10;100978.56;;;9.27;69.96
71344;BME280;59146;43.850;25.948;2023-04-27T04:07:36;100982.47;;;9.18;71.31
71344;BME280;59146;43.850;25.948;2023-04-27T04:10:02;100958.31;;;9.15;71.96
71344;BME280;59146;43.850;25.948;2023-04-27T04:12:28;100918.03;;;9.03;72.05
71344;BME280;59146;43.850;25.948;2023-04-27T04:14:53;100915.38;;;9.05;72.19
71344;BME280;59146;43.850;25.948;2023-04-27T04:17:19;101025.72;;;9.58;73.57
71344;BME280;59146;43.850;25.948;2023-04-27T04:19:44;101021.31;;;9.41;74.24
71344;BME280;59146;43.850;25.948;2023-04-27T04:22:10;101021.72;;;9.51;74.04
71344;BME280;59146;43.850;25.948;2023-04-27T04:24:36;101008.53;;;9.54;72.97
71344;BME280;59146;43.850;25.948;2023-04-27T04:27:01;101000.50;;;9.23;73.07
71344;BME280;59146;43.850;25.948;2023-04-27T04:29:27;101019.13;;;9.32;73.52
71344;BME280;59146;43.850;25.948;2023-04-27T04:31:54;100940.44;;;8.89;74.18
71344;BME280;59146;43.850;25.948;2023-04-27T04:34:20;100951.84;;;9.05;73.38
71344;BME280;59146;43.850;25.948;2023-04-27T04:36:45;100981.19;;;9.27;70.13
71344;BME280;59146;43.850;25.948;2023-04-27T04:39:11;101000.53;;;9.40;68.37
71344;BME280;59146;43.850;25.948;2023-04-27T04:41:37;100985.44;;;9.11;66.43
71344;BME280;59146;43.850;25.948;2023-04-27T04:44:03;101014.47;;;9.39;66.74
71344;BME280;59146;43.850;25.948;2023-04-27T04:46:29;100981.47;;;9.21;66.57
71344;BME280;59146;43.850;25.948;2023-04-27T04:48:54;100895.03;;;8.75;65.63
71344;BME280;59146;43.850;25.948;2023-04-27T04:51:20;101040.91;;;9.50;66.24
71344;BME280;59146;43.850;25.948;2023-04-27T04:53:46;100840.94;;;8.26;66.20
71344;BME280;59146;43.850;25.948;2023-04-27T04:56:12;101029.22;;;9.40;66.62
71344;BME280;59146;43.850;25.948;2023-04-27T04:58:38;100989.84;;;9.27;67.26
71344;BME280;59146;43.850;25.948;2023-04-27T05:01:04;101057.00;;;9.94;64.72
71344;BME280;59146;43.850;25.948;2023-04-27T05:03:30;101050.19;;;9.91;63.41
71344;BME280;59146;43.850;25.948;2023-04-27T05:05:55;100992.47;;;9.63;65.12
71344;BME280;59146;43.850;25.948;2023-04-27T05:08:21;101031.94;;;9.55;67.08
71344;BME280;59146;43.850;25.948;2023-04-27T05:10:53;100967.50;;;9.22;66.90
71344;BME280;59146;43.850;25.948;2023-04-27T05:13:20;101030.28;;;9.89;65.16
71344;BME280;59146;43.850;25.948;2023-04-27T05:15:45;101046.94;;;10.03;64.77
71344;BME280;59146;43.850;25.948;2023-04-27T05:18:11;101031.44;;;9.83;62.13
71344;BME280;59146;43.850;25.948;2023-04-27T05:20:37;100984.00;;;9.58;62.70
71344;BME280;59146;43.850;25.948;2023-04-27T05:23:03;101042.28;;;9.93;61.97
71344;BME280;59146;43.850;25.948;2023-04-27T05:25:32;100840.75;;;8.85;61.59
71344;BME280;59146;43.850;25.948;2023-04-27T05:27:58;100981.19;;;9.63;61.20
71344;BME280;59146;43.850;25.948;2023-04-27T05:30:24;101030.59;;;9.47;63.18
71344;BME280;59146;43.850;25.948;2023-04-27T05:32:49;101034.19;;;9.63;63.33
71344;BME280;59146;43.850;25.948;2023-04-27T05:35:15;101037.44;;;9.85;60.98
71344;BME280;59146;43.850;25.948;2023-04-27T05:37:40;100955.44;;;9.38;61.30
71344;BME280;59146;43.850;25.948;2023-04-27T05:40:07;101011.38;;;9.49;63.93
71344;BME280;59146;43.850;25.948;2023-04-27T05:42:34;101055.22;;;9.77;63.55
71344;BME280;59146;43.850;25.948;2023-04-27T05:45:00;101062.00;;;9.98;61.75
71344;BME280;59146;43.850;25.948;2023-04-27T05:47:26;101054.00;;;10.01;63.72
71344;BME280;59146;43.850;25.948;2023-04-27T05:49:52;101055.22;;;10.13;62.27
71344;BME280;59146;43.850;25.948;2023-04-27T05:52:18;101035.47;;;9.90;61.02
71344;BME280;59146;43.850;25.948;2023-04-27T05:54:47;101072.78;;;10.09;62.36
71344;BME280;59146;43.850;25.948;2023-04-27T05:57:13;100848.53;;;8.68;61.98
71344;BME280;59146;43.850;25.948;2023-04-27T05:59:39;100930.88;;;9.25;62.59
71344;BME280;59146;43.850;25.948;2023-04-27T06:02:05;101013.88;;;9.51;61.77
71344;BME280;59146;43.850;25.948;2023-04-27T06:04:31;100971.66;;;9.26;61.90
71344;BME280;59146;43.850;25.948;2023-04-27T06:06:58;101056.72;;;9.64;63.14
71344;BME280;59146;43.850;25.948;2023-04-27T06:09:23;101039.28;;;9.47;62.78
71344;BME280;59146;43.850;25.948;2023-04-27T06:11:49;101034.25;;;9.61;63.24
71344;BME280;59146;43.850;25.948;2023-04-27T06:14:14;100977.38;;;9.51;61.70
71344;BME280;59146;43.850;25.948;2023-04-27T06:16:40;101050.72;;;9.98;62.59
71344;BME280;59146;43.850;25.948;2023-04-27T06:19:06;101074.63;;;10.24;61.71
71344;BME280;59146;43.850;25.948;2023-04-27T06:21:32;101043.81;;;9.80;62.57
71344;BME280;59146;43.850;25.948;2023-04-27T06:23:58;101041.94;;;9.65;66.21
71344;BME280;59146;43.850;25.948;2023-04-27T06:26:24;101040.59;;;9.92;64.00
71344;BME280;59146;43.850;25.948;2023-04-27T06:28:49;101053.59;;;10.10;61.43
71344;BME280;59146;43.850;25.948;2023-04-27T06:31:15;101027.31;;;9.96;63.33
71344;BME280;59146;43.850;25.948;2023-04-27T06:33:40;101022.63;;;9.86;63.23
71344;BME280;59146;43.850;25.948;2023-04-27T06:36:06;101042.81;;;9.99;61.16
71344;BME280;59146;43.850;25.948;2023-04-27T06:38:31;101036.38;;;9.89;60.80
71344;BME280;59146;43.850;25.948;2023-04-27T06:40:57;101076.25;;;10.27;62.19
71344;BME280;59146;43.850;25.948;2023-04-27T06:43:23;101049.56;;;10.22;62.13
71344;BME280;59146;43.850;25.948;2023-04-27T06:45:49;100958.16;;;9.18;65.56
71344;BME280;59146;43.850;25.948;2023-04-27T06:48:14;101020.94;;;9.68;62.91
71344;BME280;59146;43.850;25.948;2023-04-27T06:50:41;101076.56;;;10.38;62.35
71344;BME280;59146;43.850;25.948;2023-04-27T06:53:07;100953.50;;;9.77;62.40
71344;BME280;59146;43.850;25.948;2023-04-27T06:55:32;101039.00;;;10.41;62.78
71344;BME280;59146;43.850;25.948;2023-04-27T06:57:58;101118.25;;;10.74;60.49
71344;BME280;59146;43.850;25.948;2023-04-27T07:00:23;101072.19;;;10.21;60.95
71344;BME280;59146;43.850;25.948;2023-04-27T07:02:49;101080.50;;;10.29;60.86
71344;BME280;59146;43.850;25.948;2023-04-27T07:05:15;101038.72;;;10.12;61.30
71344;BME280;59146;43.850;25.948;2023-04-27T07:07:41;101082.19;;;10.30;62.21
71344;BME280;59146;43.850;25.948;2023-04-27T07:10:08;101046.28;;;10.00;62.16
71344;BME280;59146;43.850;25.948;2023-04-27T07:12:33;101076.28;;;10.08;61.78
71344;BME280;59146;43.850;25.948;2023-04-27T07:14:59;101084.31;;;10.22;64.07
71344;BME280;59146;43.850;25.948;2023-04-27T07:17:24;101096.16;;;10.47;66.04
71344;BME280;59146;43.850;25.948;2023-04-27T07:19:53;101119.59;;;10.98;64.29
71344;BME280;59146;43.850;25.948;2023-04-27T07:22:20;101026.41;;;10.49;63.35
71344;BME280;59146;43.850;25.948;2023-04-27T07:24:46;101072.38;;;10.68;62.13
71344;BME280;59146;43.850;25.948;2023-04-27T07:27:11;100997.03;;;10.11;61.73
71344;BME280;59146;43.850;25.948;2023-04-27T07:29:37;101106.06;;;10.90;62.58
71344;BME280;59146;43.850;25.948;2023-04-27T07:32:06;101090.88;;;10.81;63.56
71344;BME280;59146;43.850;25.948;2023-04-27T07:34:32;101052.25;;;10.70;61.94
71344;BME280;59146;43.850;25.948;2023-04-27T07:36:59;101074.91;;;10.87;61.78
71344;BME280;59146;43.850;25.948;2023-04-27T07:39:25;101134.94;;;11.04;62.27
71344;BME280;59146;43.850;25.948;2023-04-27T07:41:54;101097.03;;;10.80;62.17
71344;BME280;59146;43.850;25.948;2023-04-27T07:44:19;101142.75;;;11.21;62.04
71344;BME280;59146;43.850;25.948;2023-04-27T07:46:46;101043.78;;;10.82;60.96
71344;BME280;59146;43.850;25.948;2023-04-27T07:49:16;101065.66;;;11.12;59.67
71344;BME280;59146;43.850;25.948;2023-04-27T07:51:41;101066.94;;;11.37;60.41
71344;BME280;59146;43.850;25.948;2023-04-27T07:54:07;101040.53;;;11.10;60.43
71344;BME280;59146;43.850;25.948;2023-04-27T07:56:32;101081.66;;;11.06;58.84
71344;BME280;59146;43.850;25.948;2023-04-27T07:58:58;101056.72;;;11.16;59.17
71344;BME280;59146;43.850;25.948;2023-04-27T08:01:23;100990.09;;;10.92;59.03
71344;BME280;59146;43.850;25.948;2023-04-27T08:03:49;101082.41;;;11.41;59.95
71344;BME280;59146;43.850;25.948;2023-04-27T08:06:14;101104.81;;;11.30;60.20
71344;BME280;59146;43.850;25.948;2023-04-27T08:08:40;101035.22;;;10.79;61.33
71344;BME280;59146;43.850;25.948;2023-04-27T08:11:12;101090.88;;;11.29;61.58
71344;BME280;59146;43.850;25.948;2023-04-27T08:13:37;101034.47;;;11.09;60.98
71344;BME280;59146;43.850;25.948;2023-04-27T08:16:03;101054.53;;;11.40;59.71
71344;BME280;59146;43.850;25.948;2023-04-27T08:18:28;101078.16;;;11.54;59.59
71344;BME280;59146;43.850;25.948;2023-04-27T08:20:54;101086.69;;;11.58;57.33
71344;BME280;59146;43.850;25.948;2023-04-27T08:23:20;101061.44;;;11.26;56.81
71344;BME280;59146;43.850;25.948;2023-04-27T08:25:46;101130.84;;;11.79;56.83
71344;BME280;59146;43.850;25.948;2023-04-27T08:28:13;101129.03;;;12.11;55.75
71344;BME280;59146;43.850;25.948;2023-04-27T08:30:41;101108.81;;;11.83;56.81
71344;BME280;59146;43.850;25.948;2023-04-27T08:33:06;101053.69;;;11.86;58.10
71344;BME280;59146;43.850;25.948;2023-04-27T08:35:32;101077.63;;;11.94;55.53
71344;BME280;59146;43.850;25.948;2023-04-27T08:37:58;101047.78;;;11.52;57.56
71344;BME280;59146;43.850;25.948;2023-04-27T08:40:23;101072.25;;;11.98;55.67
71344;BME280;59146;43.850;25.948;2023-04-27T08:42:57;100969.66;;;11.30;55.56
71344;BME280;59146;43.850;25.948;2023-04-27T08:45:24;101115.53;;;12.19;56.97
71344;BME280;59146;43.850;25.948;2023-04-27T08:47:50;100979.28;;;11.45;55.96
71344;BME280;59146;43.850;25.948;2023-04-27T08:50:17;101146.66;;;12.39;56.11
71344;BME280;59146;43.850;25.948;2023-04-27T08:52:44;101077.44;;;12.13;55.72
71344;BME280;59146;43.850;25.948;2023-04-27T08:55:09;101140.88;;;12.92;55.21
71344;BME280;59146;43.850;25.948;2023-04-27T08:57:35;101074.69;;;12.88;55.29
71344;BME280;59146;43.850;25.948;2023-04-27T09:00:00;101067.59;;;13.04;55.07
71344;BME280;59146;43.850;25.948;2023-04-27T09:02:28;101080.88;;;13.15;54.78
71344;BME280;59146;43.850;25.948;2023-04-27T09:04:54;101107.06;;;13.43;51.67
71344;BME280;59146;43.850;25.948;2023-04-27T09:07:20;101106.72;;;13.76;51.89
71344;BME280;59146;43.850;25.948;2023-04-27T09:09:46;101109.63;;;14.25;49.67
71344;BME280;59146;43.850;25.948;2023-04-27T09:12:19;101065.97;;;14.10;50.44
71344;BME280;59146;43.850;25.948;2023-04-27T09:14:58;101029.94;;;13.73;49.79
71344;BME280;59146;43.850;25.948;2023-04-27T09:17:27;100955.16;;;13.12;52.71
71344;BME280;59146;43.850;25.948;2023-04-27T09:20:06;101099.28;;;14.36;52.20
71344;BME280;59146;43.850;25.948;2023-04-27T09:22:55;101116.72;;;14.37;49.80
71344;BME280;59146;43.850;25.948;2023-04-27T09:27:47;101126.63;;;14.46;49.94
71344;BME280;59146;43.850;25.948;2023-04-27T09:30:14;101085.41;;;13.81;51.29
71344;BME280;59146;43.850;25.948;2023-04-27T09:32:51;101067.63;;;13.98;51.71
71344;BME280;59146;43.850;25.948;2023-04-27T09:35:28;101106.75;;;14.42;51.65
71344;BME280;59146;43.850;25.948;2023-04-27T09:37:58;101018.19;;;14.17;50.77
71344;BME280;59146;43.850;25.948;2023-04-27T09:40:25;101081.66;;;14.51;51.75
71344;BME280;59146;43.850;25.948;2023-04-27T09:43:00;101037.00;;;13.85;52.28
71344;BME280;59146;43.850;25.948;2023-04-27T09:45:26;101095.09;;;14.46;51.83
71344;BME280;59146;43.850;25.948;2023-04-27T09:47:52;101079.53;;;14.81;50.27
71344;BME280;59146;43.850;25.948;2023-04-27T09:50:18;101045.16;;;14.46;50.57
71344;BME280;59146;43.850;25.948;2023-04-27T09:52:45;101092.06;;;14.90;50.55
71344;BME280;59146;43.850;25.948;2023-04-27T09:55:15;101092.47;;;14.46;49.19
71344;BME280;59146;43.850;25.948;2023-04-27T10:08:25;100995.44;;;14.43;49.29
71344;BME280;59146;43.850;25.948;2023-04-27T10:10:52;101052.50;;;14.66;49.29
71344;BME280;59146;43.850;25.948;2023-04-27T10:13:25;101040.19;;;14.29;50.77
71344;BME280;59146;43.850;25.948;2023-04-27T10:15:52;101051.69;;;14.53;50.78
71344;BME280;59146;43.850;25.948;2023-04-27T10:18:27;101075.88;;;14.71;50.50
71344;BME280;59146;43.850;25.948;2023-04-27T10:20:53;101020.03;;;14.67;48.71
71344;BME280;59146;43.850;25.948;2023-04-27T10:23:25;101066.22;;;15.33;48.76
71344;BME280;59146;43.850;25.948;2023-04-27T10:25:52;101054.88;;;15.20;48.54
71344;BME280;59146;43.850;25.948;2023-04-27T10:28:18;101057.69;;;14.55;49.67
71344;BME280;59146;43.850;25.948;2023-04-27T10:30:47;101048.13;;;14.15;50.69
71344;BME280;59146;43.850;25.948;2023-04-27T10:33:21;101084.56;;;14.46;50.50
71344;BME280;59146;43.850;25.948;2023-04-27T10:35:55;101071.56;;;14.57;48.89
71344;BME280;59146;43.850;25.948;2023-04-27T10:38:26;101049.47;;;14.97;49.18
71344;BME280;59146;43.850;25.948;2023-04-27T10:41:00;101093.25;;;15.60;47.40
71344;BME280;59146;43.850;25.948;2023-04-27T10:43:28;101068.78;;;15.22;49.50
71344;BME280;59146;43.850;25.948;2023-04-27T10:45:53;100927.50;;;14.37;48.14
71344;BME280;59146;43.850;25.948;2023-04-27T10:48:20;101068.44;;;15.75;46.11
71344;BME280;59146;43.850;25.948;2023-04-27T10:50:46;101042.00;;;16.11;46.42
71344;BME280;59146;43.850;25.948;2023-04-27T10:53:12;101036.00;;;15.74;46.93
71344;BME280;59146;43.850;25.948;2023-04-27T10:55:39;100966.44;;;15.77;46.25
71344;BME280;59146;43.850;25.948;2023-04-27T10:58:05;101029.47;;;15.67;46.15
71344;BME280;59146;43.850;25.948;2023-04-27T11:00:40;101018.00;;;15.45;46.32
71344;BME280;59146;43.850;25.948;2023-04-27T11:03:28;101077.56;;;16.06;45.25
71344;BME280;59146;43.850;25.948;2023-04-27T11:06:03;101085.69;;;16.72;46.60
71344;BME280;59146;43.850;25.948;2023-04-27T11:08:29;101057.63;;;16.82;43.70
71344;BME280;59146;43.850;25.948;2023-04-27T11:11:01;101059.63;;;15.87;43.57
71344;BME280;59146;43.850;25.948;2023-04-27T11:13:26;101038.16;;;15.21;45.48
71344;BME280;59146;43.850;25.948;2023-04-27T11:15:58;101076.09;;;16.25;45.15
71344;BME280;59146;43.850;25.948;2023-04-27T11:18:29;101028.97;;;15.86;44.20
71344;BME280;59146;43.850;25.948;2023-04-27T11:21:06;100987.13;;;16.05;44.57
71344;BME280;59146;43.850;25.948;2023-04-27T11:23:32;100996.13;;;16.14;45.51
71344;BME280;59146;43.850;25.948;2023-04-27T11:26:17;101084.81;;;16.49;45.66
71344;BME280;59146;43.850;25.948;2023-04-27T11:28:44;101068.25;;;15.89;46.50
71344;BME280;59146;43.850;25.948;2023-04-27T11:31:21;101052.38;;;16.25;47.04
71344;BME280;59146;43.850;25.948;2023-04-27T11:33:47;101028.00;;;16.67;45.10
71344;BME280;59146;43.850;25.948;2023-04-27T11:36:17;101046.97;;;16.73;44.07
71344;BME280;59146;43.850;25.948;2023-04-27T11:38:43;101014.69;;;15.77;45.21
71344;BME280;59146;43.850;25.948;2023-04-27T11:41:08;101076.63;;;15.83;46.34
71344;BME280;59146;43.850;25.948;2023-04-27T11:43:35;100996.50;;;15.38;47.75
71344;BME280;59146;43.850;25.948;2023-04-27T11:46:04;101054.28;;;16.23;45.64
71344;BME280;59146;43.850;25.948;2023-04-27T11:48:36;101010.56;;;16.43;45.88
71344;BME280;59146;43.850;25.948;2023-04-27T11:51:02;101042.97;;;16.56;44.73
71344;BME280;59146;43.850;25.948;2023-04-27T11:53:38;100973.56;;;15.64;47.16
71344;BME280;59146;43.850;25.948;2023-04-27T11:56:05;101067.94;;;16.28;46.06
71344;BME280;59146;43.850;25.948;2023-04-27T11:58:35;101011.44;;;16.09;46.16
71344;BME280;59146;43.850;25.948;2023-04-27T12:01:02;101049.34;;;16.30;46.97
71344;BME280;59146;43.850;25.948;2023-04-27T12:03:28;101024.25;;;16.02;46.27
71344;BME280;59146;43.850;25.948;2023-04-27T12:05:55;101034.41;;;15.96;45.89
71344;BME280;59146;43.850;25.948;2023-04-27T12:08:21;100991.09;;;16.11;47.70
71344;BME280;59146;43.850;25.948;2023-04-27T12:10:47;101027.16;;;16.21;46.25
71344;BME280;59146;43.850;25.948;2023-04-27T12:13:13;100963.97;;;15.63;46.02
71344;BME280;59146;43.850;25.948;2023-04-27T12:15:39;101040.78;;;15.57;47.64
71344;BME280;59146;43.850;25.948;2023-04-27T12:18:05;100985.84;;;15.52;46.84
71344;BME280;59146;43.850;25.948;2023-04-27T12:20:34;101044.19;;;16.63;45.73
71344;BME280;59146;43.850;25.948;2023-04-27T12:22:59;100985.69;;;16.58;45.78
71344;BME280;59146;43.850;25.948;2023-04-27T12:25:25;101011.88;;;16.48;46.12
71344;BME280;59146;43.850;25.948;2023-04-27T12:27:51;101030.56;;;16.23;46.20
71344;BME280;59146;43.850;25.948;2023-04-27T12:30:16;101065.69;;;15.76;47.28
71344;BME280;59146;43.850;25.948;2023-04-27T12:32:42;100978.56;;;15.90;45.71
71344;BME280;59146;43.850;25.948;2023-04-27T12:35:08;100971.19;;;16.52;45.21
71344;BME280;59146;43.850;25.948;2023-04-27T12:37:35;101032.91;;;17.05;45.83
71344;BME280;59146;43.850;25.948;2023-04-27T12:40:01;101012.19;;;17.01;44.28
71344;BME280;59146;43.850;25.948;2023-04-27T12:42:30;100917.63;;;15.95;45.94
71344;BME280;59146;43.850;25.948;2023-04-27T12:44:55;100964.84;;;16.09;45.71
71344;BME280;59146;43.850;25.948;2023-04-27T12:47:21;101041.47;;;16.41;45.85
71344;BME280;59146;43.850;25.948;2023-04-27T12:49:47;100983.13;;;16.45;45.60
71344;BME280;59146;43.850;25.948;2023-04-27T12:52:12;101003.91;;;16.72;43.77
71344;BME280;59146;43.850;25.948;2023-04-27T12:54:38;100981.19;;;16.25;45.73
71344;BME280;59146;43.850;25.948;2023-04-27T12:57:04;100916.34;;;16.12;45.77